createdAt,value
2023-04-11T00:01:54.346Z,8.45
2023-04-11T00:04:22.922Z,7.96
2023-04-11T00:06:50.437Z,7.92
2023-04-11T00:09:18.005Z,8.41
2023-04-11T00:11:48.046Z,8.26
2023-04-11T00:14:15.472Z,7.45
2023-04-11T00:16:42.911Z,7.60
2023-04-11T00:19:10.704Z,7.91
2023-04-11T00:21:40.890Z,8.25
2023-04-11T00:24:08.407Z,8.35
2023-04-11T00:26:36.032Z,8.45
2023-04-11T00:29:03.540Z,8.53
2023-04-11T00:31:30.984Z,8.56
2023-04-11T00:33:58.895Z,8.25
2023-04-11T00:36:27.136Z,8.06
2023-04-11T00:39:35.250Z,8.22
2023-04-11T00:42:23.958Z,8.48
2023-04-11T00:45:36.713Z,8.02
2023-04-11T00:48:12.847Z,7.36
2023-04-11T00:50:41.895Z,7.32
2023-04-11T00:53:11.455Z,7.42
2023-04-11T00:55:39.411Z,7.87
2023-04-11T00:58:08.224Z,8.20
2023-04-11T01:00:35.680Z,9.47
2023-04-11T01:03:03.266Z,9.52
2023-04-11T01:05:33.330Z,9.37
2023-04-11T01:08:01.380Z,8.63
2023-04-11T01:10:30.901Z,7.80
2023-04-11T01:13:01.702Z,7.33
2023-04-11T01:15:29.245Z,7.33
2023-04-11T01:17:57.922Z,7.09
2023-04-11T01:20:26.452Z,6.52
2023-04-11T01:22:54.422Z,6.16
2023-04-11T01:25:22.501Z,5.90
2023-04-11T01:27:50.311Z,5.98
2023-04-11T01:30:17.823Z,5.99
2023-04-11T01:32:45.486Z,6.35
2023-04-11T01:35:13.602Z,6.70
2023-04-11T01:37:41.139Z,6.45
2023-04-11T01:40:09.567Z,6.16
2023-04-11T01:42:39.083Z,6.20
2023-04-11T01:45:07.448Z,6.17
2023-04-11T01:47:34.966Z,5.95
2023-04-11T01:50:02.700Z,6.53
2023-04-11T01:52:30.351Z,6.91
2023-04-11T01:54:57.805Z,7.13
2023-04-11T01:57:26.433Z,7.66
2023-04-11T01:59:53.867Z,7.54
2023-04-11T02:02:21.285Z,7.67
2023-04-11T02:04:49.007Z,8.06
2023-04-11T02:07:16.411Z,7.86
2023-04-11T02:09:43.831Z,8.98
2023-04-11T02:12:11.446Z,8.33
2023-04-11T02:14:42.365Z,6.03
2023-04-11T02:17:12.853Z,5.53
2023-04-11T02:19:45.615Z,5.50
2023-04-11T02:22:13.129Z,4.91
2023-04-11T02:24:41.073Z,5.31
2023-04-11T02:27:09.336Z,5.43
2023-04-11T02:29:36.775Z,5.38
2023-04-11T02:32:04.539Z,5.09
2023-04-11T02:34:32.086Z,5.22
2023-04-11T02:36:59.460Z,5.17
2023-04-11T02:39:27.828Z,5.22
2023-04-11T02:41:57.363Z,5.54
2023-04-11T02:44:26.328Z,5.28
2023-04-11T02:46:55.387Z,5.18
2023-04-11T02:49:23.117Z,5.21
2023-04-11T02:51:51.837Z,4.99
2023-04-11T02:54:19.608Z,4.76
2023-04-11T02:56:47.123Z,4.74
2023-04-11T02:59:14.542Z,4.64
2023-04-11T03:01:42.904Z,4.61
2023-04-11T03:04:10.600Z,4.76
2023-04-11T03:06:39.482Z,4.87
2023-04-11T03:09:07.255Z,5.04
2023-04-11T03:11:34.678Z,4.82
2023-04-11T03:14:02.919Z,5.11
2023-04-11T03:16:30.598Z,4.97
2023-04-11T03:18:58.739Z,4.93
2023-04-11T03:21:26.560Z,4.95
2023-04-11T03:23:54.440Z,4.85
2023-04-11T03:26:22.370Z,5.06
2023-04-11T03:28:49.901Z,4.64
2023-04-11T03:31:19.046Z,5.03
2023-04-11T03:33:47.000Z,4.73
2023-04-11T03:36:14.591Z,4.82
2023-04-11T03:38:42.459Z,4.97
2023-04-11T03:41:11.145Z,4.73
2023-04-11T03:43:38.927Z,4.79
2023-04-11T03:46:07.009Z,4.77
2023-04-11T03:48:35.277Z,4.95
2023-04-11T03:51:03.293Z,4.93
2023-04-11T03:53:31.882Z,4.73
2023-04-11T03:56:00.299Z,4.57
2023-04-11T03:58:28.795Z,4.46
2023-04-11T04:00:56.796Z,4.58
2023-04-11T04:03:24.973Z,4.61
2023-04-11T04:05:53.267Z,4.40
2023-04-11T04:08:22.775Z,4.39
2023-04-11T04:10:51.826Z,4.56
2023-04-11T04:13:19.417Z,4.80
2023-04-11T04:15:47.678Z,5.14
2023-04-11T04:18:16.398Z,5.09
2023-04-11T04:20:44.183Z,4.87
2023-04-11T04:23:14.213Z,4.87
2023-04-11T04:25:43.366Z,4.91
2023-04-11T04:28:11.617Z,5.18
2023-04-11T04:30:39.278Z,5.43
2023-04-11T04:33:12.214Z,5.46
2023-04-11T04:35:40.088Z,5.60
2023-04-11T04:38:08.859Z,5.47
2023-04-11T04:40:40.110Z,5.34
2023-04-11T04:43:11.582Z,5.57
2023-04-11T04:45:39.698Z,5.64
2023-04-11T04:48:07.771Z,5.79
2023-04-11T04:50:35.544Z,6.17
2023-04-11T04:53:02.941Z,5.92
2023-04-11T04:55:33.368Z,5.49
2023-04-11T04:58:01.173Z,5.36
2023-04-11T05:00:29.535Z,5.83
2023-04-11T05:02:58.669Z,5.48
2023-04-11T05:05:29.234Z,5.53
2023-04-11T05:07:57.278Z,5.91
2023-04-11T05:10:24.740Z,5.87
2023-04-11T05:12:53.600Z,5.94
2023-04-11T05:15:23.453Z,6.38
2023-04-11T05:17:50.898Z,6.59
2023-04-11T05:20:18.870Z,7.00
2023-04-11T05:22:48.878Z,6.84
2023-04-11T05:25:18.041Z,6.92
2023-04-11T05:27:46.144Z,7.16
2023-04-11T05:30:14.229Z,7.79
2023-04-11T05:32:42.990Z,8.43
2023-04-11T05:35:11.058Z,9.16
2023-04-11T05:37:39.889Z,8.73
2023-04-11T05:40:08.922Z,8.97
2023-04-11T05:42:36.353Z,9.23
2023-04-11T05:45:04.332Z,8.90
2023-04-11T05:47:32.274Z,9.32
2023-04-11T05:49:59.816Z,9.64
2023-04-11T05:52:27.565Z,9.91
2023-04-11T05:54:54.988Z,10.24
2023-04-11T05:57:23.581Z,10.23
2023-04-11T05:59:53.182Z,10.23
2023-04-11T06:02:21.241Z,10.39
2023-04-11T06:04:49.202Z,10.37
2023-04-11T06:07:16.725Z,10.73
2023-04-11T06:09:44.346Z,10.95
2023-04-11T06:12:12.002Z,11.05
2023-04-11T06:14:40.669Z,11.22
2023-04-11T06:17:08.236Z,11.35
2023-04-11T06:19:35.925Z,11.44
2023-04-11T06:22:03.423Z,11.44
2023-04-11T06:24:39.118Z,11.71
2023-04-11T06:27:10.045Z,11.79
2023-04-11T06:29:38.664Z,11.80
2023-04-11T06:32:06.774Z,11.90
2023-04-11T06:34:34.523Z,12.29
2023-04-11T06:37:01.955Z,12.14
2023-04-11T06:39:29.345Z,12.47
2023-04-11T06:41:56.986Z,12.42
2023-04-11T06:44:24.826Z,12.32
2023-04-11T06:46:52.425Z,12.50
2023-04-11T06:49:20.778Z,12.75
2023-04-11T06:51:50.114Z,13.51
2023-04-11T06:54:18.223Z,12.94
2023-04-11T06:56:46.064Z,12.47
2023-04-11T06:59:14.062Z,12.82
2023-04-11T07:01:41.518Z,12.99
2023-04-11T07:04:09.473Z,13.18
2023-04-11T07:06:37.042Z,13.37
2023-04-11T07:09:05.067Z,13.53
2023-04-11T07:11:33.424Z,13.36
2023-04-11T07:14:01.393Z,13.02
2023-04-11T07:16:28.937Z,12.84
2023-04-11T07:18:57.539Z,13.45
2023-04-11T07:21:25.147Z,13.98
2023-04-11T07:23:53.553Z,14.23
2023-04-11T07:26:23.905Z,14.33
2023-04-11T07:28:51.370Z,14.44
2023-04-11T07:31:21.555Z,14.65
2023-04-11T07:33:49.637Z,15.03
2023-04-11T07:36:17.663Z,15.55
2023-04-11T07:38:45.344Z,15.40
2023-04-11T07:41:13.164Z,14.20
2023-04-11T07:43:40.760Z,14.41
2023-04-11T07:46:08.225Z,14.57
2023-04-11T07:48:35.982Z,14.62
2023-04-11T07:51:03.348Z,13.81
2023-04-11T07:53:33.240Z,14.34
2023-04-11T07:56:01.529Z,14.30
2023-04-11T07:58:30.146Z,14.41
2023-04-11T08:00:58.614Z,14.24
2023-04-11T08:03:27.180Z,14.67
2023-04-11T08:05:55.037Z,15.32
2023-04-11T08:08:22.626Z,14.61
2023-04-11T08:10:52.227Z,14.65
2023-04-11T08:13:19.800Z,14.14
2023-04-11T08:15:47.236Z,13.82
2023-04-11T08:18:16.349Z,13.71
2023-04-11T08:20:43.907Z,14.43
2023-04-11T08:23:11.574Z,14.47
2023-04-11T08:25:39.267Z,14.64
2023-04-11T08:28:06.956Z,15.16
2023-04-11T08:30:34.330Z,14.71
2023-04-11T08:33:02.205Z,14.52
2023-04-11T08:35:29.856Z,14.40
2023-04-11T08:37:57.350Z,14.97
2023-04-11T08:40:26.985Z,14.64
2023-04-11T08:43:00.856Z,14.52
2023-04-11T08:45:29.327Z,14.72
2023-04-11T08:47:56.787Z,15.25
2023-04-11T08:50:24.415Z,14.79
2023-04-11T08:52:52.862Z,14.60
2023-04-11T08:55:20.400Z,14.89
2023-04-11T08:57:48.022Z,14.88
2023-04-11T09:00:19.159Z,14.33
2023-04-11T09:03:04.831Z,14.43
2023-04-11T09:05:38.732Z,14.69
2023-04-11T09:08:14.432Z,15.07
2023-04-11T09:10:47.738Z,14.57
2023-04-11T09:13:25.988Z,14.32
2023-04-11T09:16:06.156Z,14.97
2023-04-11T09:18:34.431Z,14.74
2023-04-11T09:21:04.932Z,14.87
2023-04-11T09:23:32.437Z,15.36
2023-04-11T09:26:00.189Z,15.43
2023-04-11T09:28:28.106Z,15.82
2023-04-11T09:30:56.419Z,16.34
2023-04-11T09:33:26.169Z,15.86
2023-04-11T09:35:55.709Z,15.70
2023-04-11T09:38:33.115Z,16.16
2023-04-11T09:41:02.401Z,16.05
2023-04-11T09:43:59.529Z,16.69
2023-04-11T09:46:27.357Z,15.96
2023-04-11T09:48:56.175Z,16.05
2023-04-11T09:51:35.679Z,16.30
2023-04-11T09:54:05.511Z,16.48
2023-04-11T09:56:36.702Z,16.62
2023-04-11T09:59:05.264Z,16.56
2023-04-11T10:01:33.299Z,16.91
2023-04-11T10:04:01.689Z,16.94
2023-04-11T10:07:09.142Z,17.24
2023-04-11T10:09:42.167Z,17.49
2023-04-11T10:12:09.617Z,16.95
2023-04-11T10:14:41.818Z,17.28
2023-04-11T10:17:23.410Z,17.27
2023-04-11T10:19:56.720Z,17.35
2023-04-11T10:22:46.583Z,17.09
2023-04-11T10:25:18.778Z,16.89
2023-04-11T10:27:50.107Z,17.21
2023-04-11T10:30:17.874Z,17.73
2023-04-11T10:33:13.905Z,17.14
2023-04-11T10:36:12.790Z,16.97
2023-04-11T10:38:41.003Z,17.25
2023-04-11T10:41:17.565Z,17.22
2023-04-11T10:43:46.025Z,17.26
2023-04-11T10:46:32.093Z,17.03
2023-04-11T10:49:04.600Z,17.77
2023-04-11T10:51:33.147Z,17.90
2023-04-11T10:54:01.048Z,18.30
2023-04-11T10:56:45.445Z,18.31
2023-04-11T10:59:31.507Z,18.14
2023-04-11T11:02:02.415Z,19.32
2023-04-11T11:04:35.014Z,18.90
2023-04-11T11:07:07.209Z,17.62
2023-04-11T11:09:35.456Z,17.78
2023-04-11T11:12:12.486Z,18.28
2023-04-11T11:14:41.673Z,17.87
2023-04-11T11:17:09.357Z,17.71
2023-04-11T11:19:36.841Z,18.03
2023-04-11T11:22:06.202Z,18.84
2023-04-11T11:24:33.671Z,18.81
2023-04-11T11:27:01.125Z,18.61
2023-04-11T11:29:34.664Z,17.37
2023-04-11T11:32:05.926Z,17.78
2023-04-11T11:34:35.282Z,18.33
2023-04-11T11:37:06.885Z,19.05
2023-04-11T11:39:35.444Z,18.72
2023-04-11T11:42:03.469Z,17.98
2023-04-11T11:44:31.345Z,18.65
2023-04-11T11:47:06.205Z,18.27
2023-04-11T11:49:47.520Z,18.19
2023-04-11T11:52:34.471Z,18.13
2023-04-11T11:55:03.340Z,18.05
2023-04-11T11:57:31.890Z,17.94
2023-04-11T12:00:01.484Z,17.35
2023-04-11T12:02:29.195Z,17.20
2023-04-11T12:05:00.941Z,17.38
2023-04-11T12:07:33.349Z,17.51
2023-04-11T12:10:02.212Z,17.99
2023-04-11T12:12:37.212Z,18.35
2023-04-11T12:15:17.984Z,17.93
2023-04-11T12:17:55.206Z,18.22
2023-04-11T12:20:23.992Z,18.32
2023-04-11T12:22:53.009Z,18.11
2023-04-11T12:25:21.904Z,17.94
2023-04-11T12:27:49.587Z,18.10
2023-04-11T12:30:17.334Z,18.72
2023-04-11T12:32:45.471Z,18.36
2023-04-11T12:35:13.358Z,18.30
2023-04-11T12:37:43.283Z,18.31
2023-04-11T12:40:12.270Z,18.24
2023-04-11T12:45:11.805Z,18.31
2023-04-11T12:47:39.386Z,18.55
2023-04-11T12:50:08.102Z,18.21
2023-04-11T12:52:36.621Z,18.08
2023-04-11T12:55:04.801Z,18.25
2023-04-11T12:57:33.862Z,18.16
2023-04-11T13:00:01.278Z,17.76
2023-04-11T13:02:31.238Z,18.11
2023-04-11T13:05:06.444Z,18.09
2023-04-11T13:07:34.998Z,17.54
2023-04-11T13:10:03.742Z,18.06
2023-04-11T13:12:31.481Z,17.96
2023-04-11T13:14:58.923Z,18.34
2023-04-11T13:17:26.733Z,17.57
2023-04-11T13:19:54.160Z,17.28
2023-04-11T13:22:21.548Z,17.79
2023-04-11T13:24:49.202Z,17.43
2023-04-11T13:27:16.685Z,17.28
2023-04-11T13:29:44.075Z,17.60
2023-04-11T13:32:11.790Z,17.40
2023-04-11T13:34:39.185Z,17.24
2023-04-11T13:37:06.780Z,17.34
2023-04-11T13:39:34.839Z,17.52
2023-04-11T13:42:02.418Z,17.28
2023-04-11T13:44:29.862Z,17.25
2023-04-11T13:46:57.566Z,17.15
2023-04-11T13:49:25.022Z,16.97
2023-04-11T13:51:52.422Z,16.94
2023-04-11T13:54:20.055Z,16.76
2023-04-11T13:56:47.433Z,16.58
2023-04-11T13:59:15.007Z,16.81
2023-04-11T14:01:43.019Z,16.86
2023-04-11T14:04:11.876Z,16.23
2023-04-11T14:06:39.732Z,16.23
2023-04-11T14:09:07.750Z,16.81
2023-04-11T14:11:35.758Z,16.88
2023-04-11T14:14:03.253Z,16.57
2023-04-11T14:16:30.640Z,16.16
2023-04-11T14:18:58.271Z,16.33
2023-04-11T14:23:56.422Z,16.03
2023-04-11T14:26:24.527Z,16.36
2023-04-11T14:28:51.894Z,16.25
2023-04-11T14:31:19.634Z,16.03
2023-04-11T14:33:49.012Z,15.74
2023-04-11T14:36:16.477Z,15.71
2023-04-11T14:38:43.881Z,15.83
2023-04-11T14:41:13.643Z,15.68
2023-04-11T14:43:41.271Z,15.29
2023-04-11T14:46:09.024Z,15.35
2023-04-11T14:48:36.882Z,15.14
2023-04-11T14:51:04.821Z,14.44
2023-04-11T14:53:32.530Z,14.95
2023-04-11T14:56:04.708Z,14.28
2023-04-11T14:58:32.721Z,13.81
2023-04-11T15:01:00.355Z,14.03
2023-04-11T15:03:28.038Z,13.80
2023-04-11T15:05:55.690Z,13.18
2023-04-11T15:08:23.307Z,12.74
2023-04-11T15:10:54.265Z,12.02
2023-04-11T15:13:22.856Z,12.10
2023-04-11T15:15:51.436Z,11.73
2023-04-11T15:18:20.409Z,11.55
2023-04-11T15:20:48.100Z,11.98
2023-04-11T15:23:16.386Z,12.09
2023-04-11T15:25:43.879Z,11.94
2023-04-11T15:28:11.376Z,11.72
2023-04-11T15:30:47.698Z,12.25
2023-04-11T15:33:16.204Z,11.79
2023-04-11T15:35:45.030Z,11.38
2023-04-11T15:38:13.759Z,11.92
2023-04-11T15:40:41.239Z,12.19
2023-04-11T15:43:09.140Z,12.12
2023-04-11T15:45:37.545Z,12.24
2023-04-11T15:48:05.588Z,11.98
2023-04-11T15:50:33.260Z,12.21
2023-04-11T15:53:00.663Z,12.61
2023-04-11T15:55:28.674Z,12.39
2023-04-11T15:57:56.925Z,12.76
2023-04-11T16:00:24.568Z,12.63
2023-04-11T16:02:52.478Z,12.27
2023-04-11T16:05:20.971Z,12.89
2023-04-11T16:07:48.864Z,12.86
2023-04-11T16:10:16.536Z,12.95
2023-04-11T16:12:43.936Z,13.67
2023-04-11T16:15:11.514Z,13.04
2023-04-11T16:17:39.386Z,13.30
2023-04-11T16:20:10.156Z,13.50
2023-04-11T16:22:39.640Z,13.23
2023-04-11T16:25:07.556Z,12.82
2023-04-11T16:27:35.049Z,13.75
2023-04-11T16:30:05.367Z,13.59
2023-04-11T16:32:32.789Z,12.60
2023-04-11T16:35:00.970Z,12.32
2023-04-11T16:37:28.718Z,12.09
2023-04-11T16:39:56.540Z,11.66
2023-04-11T16:42:24.032Z,12.11
2023-04-11T16:44:51.689Z,11.96
2023-04-11T16:47:20.513Z,11.83
2023-04-11T16:49:47.925Z,12.29
2023-04-11T16:52:15.593Z,11.84
2023-04-11T16:54:42.989Z,12.36
2023-04-11T16:57:10.419Z,12.27
2023-04-11T16:59:38.176Z,12.39
2023-04-11T17:02:05.847Z,12.57
2023-04-11T17:04:33.735Z,12.49
2023-04-11T17:07:01.625Z,11.97
2023-04-11T17:09:29.429Z,12.41
2023-04-11T17:11:57.758Z,12.15
2023-04-11T17:14:25.400Z,11.60
2023-04-11T17:16:53.335Z,11.60
2023-04-11T17:19:20.751Z,11.09
2023-04-11T17:21:48.373Z,11.65
2023-04-11T17:24:15.918Z,11.56
2023-04-11T17:26:43.337Z,11.88
2023-04-11T17:29:11.089Z,11.31
2023-04-11T17:31:38.561Z,11.70
2023-04-11T17:34:06.055Z,11.52
2023-04-11T17:36:33.687Z,11.25
2023-04-11T17:39:01.076Z,11.84
2023-04-11T17:41:28.512Z,11.93
2023-04-11T17:43:56.907Z,12.37
2023-04-11T17:46:24.673Z,12.98
2023-04-11T17:48:52.098Z,12.30
2023-04-11T17:51:19.778Z,12.68
2023-04-11T17:53:47.117Z,12.54
2023-04-11T17:56:14.899Z,11.55
2023-04-11T17:58:44.836Z,12.09
2023-04-11T18:01:12.859Z,12.61
2023-04-11T18:03:41.269Z,11.59
2023-04-11T18:06:08.966Z,11.51
2023-04-11T18:11:11.086Z,10.79
2023-04-11T18:13:38.651Z,10.98
2023-04-11T18:16:06.655Z,11.76
2023-04-11T18:18:34.641Z,10.57
2023-04-11T18:21:05.035Z,10.89
2023-04-11T18:23:35.692Z,10.68
2023-04-11T18:26:03.317Z,11.26
2023-04-11T18:28:30.769Z,10.76
2023-04-11T18:30:58.549Z,11.53
2023-04-11T18:33:26.990Z,11.75
2023-04-11T18:35:55.159Z,10.98
2023-04-11T18:38:23.070Z,10.24
2023-04-11T18:40:54.922Z,10.87
2023-04-11T18:43:25.672Z,11.30
2023-04-11T18:45:53.527Z,11.45
2023-04-11T18:48:21.533Z,11.15
2023-04-11T18:50:59.216Z,11.79
2023-04-11T18:53:28.567Z,10.99
2023-04-11T18:55:58.258Z,11.57
2023-04-11T18:58:28.332Z,11.27
2023-04-11T19:00:58.150Z,10.70
2023-04-11T19:03:26.860Z,10.35
2023-04-11T19:05:55.433Z,10.43
2023-04-11T19:08:24.200Z,10.87
2023-04-11T19:10:52.869Z,11.32
2023-04-11T19:13:21.091Z,11.54
2023-04-11T19:15:49.299Z,11.39
2023-04-11T19:18:17.635Z,11.06
2023-04-11T19:20:45.884Z,10.71
2023-04-11T19:23:14.668Z,11.01
2023-04-11T19:25:43.448Z,11.26
2023-04-11T19:28:11.753Z,11.36
2023-04-11T19:30:39.847Z,11.58
2023-04-11T19:33:09.207Z,11.33
2023-04-11T19:35:38.573Z,11.24
2023-04-11T19:38:08.421Z,11.33
2023-04-11T19:40:36.869Z,11.12
2023-04-11T19:43:04.989Z,11.08
2023-04-11T19:45:33.312Z,11.14
2023-04-11T19:48:03.296Z,11.19
2023-04-11T19:50:33.214Z,11.33
2023-04-11T19:53:01.682Z,10.06
2023-04-11T19:55:29.703Z,9.84
2023-04-11T19:57:58.207Z,10.48
2023-04-11T20:00:31.954Z,10.38
2023-04-11T20:03:06.364Z,11.29
2023-04-11T20:05:34.599Z,11.81
2023-04-11T20:08:03.512Z,12.20
2023-04-11T20:10:34.723Z,11.19
2023-04-11T20:13:06.174Z,11.83
2023-04-11T20:15:34.590Z,10.40
2023-04-11T20:18:03.145Z,10.94
2023-04-11T20:20:33.882Z,9.82
2023-04-11T20:23:05.406Z,9.93
2023-04-11T20:25:34.836Z,10.20
2023-04-11T20:28:03.518Z,9.62
2023-04-11T20:30:30.946Z,9.71
2023-04-11T20:32:58.429Z,9.52
2023-04-11T20:35:26.189Z,9.32
2023-04-11T20:37:54.125Z,9.70
2023-04-11T20:40:21.621Z,9.39
2023-04-11T20:42:49.559Z,9.24
2023-04-11T20:45:20.639Z,9.08
2023-04-11T20:47:49.756Z,8.92
2023-04-11T20:50:17.691Z,9.26
2023-04-11T20:52:46.902Z,9.59
2023-04-11T20:55:14.562Z,9.79
2023-04-11T20:57:42.378Z,10.48
2023-04-11T21:00:14.326Z,10.55
2023-04-11T21:02:44.168Z,10.98
2023-04-11T21:05:13.304Z,11.08
2023-04-11T21:07:42.058Z,10.39
2023-04-11T21:10:10.490Z,10.82
2023-04-11T21:12:38.197Z,11.08
2023-04-11T21:15:06.781Z,11.16
2023-04-11T21:17:35.576Z,10.54
2023-04-11T21:20:11.199Z,9.99
2023-04-11T21:22:40.280Z,9.50
2023-04-11T21:25:08.210Z,9.39
2023-04-11T21:27:35.652Z,9.86
2023-04-11T21:30:03.585Z,9.48
2023-04-11T21:32:31.018Z,9.22
2023-04-11T21:34:58.584Z,9.24
2023-04-11T21:37:26.335Z,8.48
2023-04-11T21:39:56.964Z,8.54
2023-04-11T21:42:24.411Z,7.94
2023-04-11T21:44:52.087Z,8.12
2023-04-11T21:47:19.653Z,8.13
2023-04-11T21:49:47.474Z,8.07
2023-04-11T21:52:15.393Z,8.06
2023-04-11T21:54:43.712Z,8.71
2023-04-11T21:57:11.259Z,8.07
2023-04-11T21:59:39.304Z,8.21
2023-04-11T22:02:06.961Z,8.28
2023-04-11T22:04:41.334Z,7.80
2023-04-11T22:07:15.121Z,7.86
2023-04-11T22:09:46.911Z,7.99
2023-04-11T22:12:17.703Z,7.75
2023-04-11T22:14:45.354Z,8.01
2023-04-11T22:17:13.106Z,7.68
2023-04-11T22:19:42.301Z,8.04
2023-04-11T22:22:10.211Z,7.94
2023-04-11T22:24:38.353Z,8.11
2023-04-11T22:27:10.329Z,8.16
2023-04-11T22:29:38.630Z,8.07
2023-04-11T22:32:06.269Z,8.60
2023-04-11T22:34:33.768Z,8.17
2023-04-11T22:37:01.470Z,8.22
2023-04-11T22:39:28.928Z,8.38
2023-04-11T22:41:56.306Z,8.80
2023-04-11T22:44:23.956Z,8.91
2023-04-11T22:47:13.647Z,8.79
2023-04-11T22:49:42.225Z,8.01
2023-04-11T22:52:15.020Z,8.14
2023-04-11T22:54:43.285Z,7.87
2023-04-11T22:57:10.713Z,8.25
2023-04-11T22:59:38.116Z,7.99
2023-04-11T23:02:06.548Z,7.99
2023-04-11T23:04:33.993Z,7.96
2023-04-11T23:07:01.439Z,7.81
2023-04-11T23:09:29.143Z,8.00
2023-04-11T23:11:56.601Z,7.66
2023-04-11T23:14:30.892Z,7.91
2023-04-11T23:16:58.599Z,7.84
2023-04-11T23:19:27.334Z,7.68
2023-04-11T23:21:55.566Z,7.79
2023-04-11T23:24:23.236Z,7.73
2023-04-11T23:26:50.834Z,7.73
2023-04-11T23:29:18.453Z,7.86
2023-04-11T23:31:46.112Z,7.60
2023-04-11T23:34:14.013Z,7.74
2023-04-11T23:36:42.150Z,7.75
2023-04-11T23:39:09.923Z,7.79
2023-04-11T23:41:37.377Z,7.87
2023-04-11T23:44:04.718Z,7.83
2023-04-11T23:46:32.436Z,7.84
2023-04-11T23:49:01.443Z,7.81
2023-04-11T23:51:28.849Z,7.46
2023-04-11T23:53:57.297Z,7.74
2023-04-11T23:56:24.867Z,7.67
2023-04-11T23:58:52.304Z,7.54
